sensor_id;sensor_type;location;lat;lon;timestamp;P1;durP1;ratioP1;P2;durP2;ratioP2
38113;SDS011;23926;53.222;6.354;2023-06-22T00:01:10;21.88;;;12.30;;
38113;SDS011;23926;53.222;6.354;2023-06-22T00:03:36;9.30;;;7.78;;
38113;SDS011;23926;53.222;6.354;2023-06-22T00:06:01;10.40;;;7.80;;
38113;SDS011;23926;53.222;6.354;2023-06-22T00:08:27;9.02;;;8.07;;
38113;SDS011;23926;53.222;6.354;2023-06-22T00:10:52;15.25;;;12.05;;
38113;SDS011;23926;53.222;6.354;2023-06-22T00:13:17;20.70;;;15.25;;
38113;SDS011;23926;53.222;6.354;2023-06-22T00:15:43;23.33;;;15.68;;
38113;SDS011;23926;53.222;6.354;2023-06-22T00:18:10;19.50;;;15.10;;
38113;SDS011;23926;53.222;6.354;2023-06-22T00:20:36;22.63;;;13.90;;
38113;SDS011;23926;53.222;6.354;2023-06-22T00:23:05;21.00;;;16.10;;
38113;SDS011;23926;53.222;6.354;2023-06-22T00:25:37;20.38;;;15.93;;
38113;SDS011;23926;53.222;6.354;2023-06-22T00:28:03;16.60;;;13.90;;
38113;SDS011;23926;53.222;6.354;2023-06-22T00:30:30;14.48;;;12.73;;
38113;SDS011;23926;53.222;6.354;2023-06-22T00:32:56;13.75;;;12.25;;
38113;SDS011;23926;53.222;6.354;2023-06-22T00:35:22;19.50;;;13.88;;
38113;SDS011;23926;53.222;6.354;2023-06-22T00:37:47;13.40;;;12.00;;
38113;SDS011;23926;53.222;6.354;2023-06-22T00:40:13;18.95;;;13.35;;
38113;SDS011;23926;53.222;6.354;2023-06-22T00:42:39;18.60;;;13.80;;
38113;SDS011;23926;53.222;6.354;2023-06-22T00:45:06;16.58;;;12.05;;
38113;SDS011;23926;53.222;6.354;2023-06-22T00:47:33;14.77;;;10.90;;
38113;SDS011;23926;53.222;6.354;2023-06-22T00:50:00;18.27;;;12.20;;
38113;SDS011;23926;53.222;6.354;2023-06-22T00:52:28;11.50;;;10.18;;
38113;SDS011;23926;53.222;6.354;2023-06-22T00:54:56;12.13;;;9.87;;
38113;SDS011;23926;53.222;6.354;2023-06-22T00:57:22;13.70;;;8.98;;
38113;SDS011;23926;53.222;6.354;2023-06-22T00:59:52;12.68;;;9.30;;
38113;SDS011;23926;53.222;6.354;2023-06-22T01:02:18;15.25;;;10.60;;
38113;SDS011;23926;53.222;6.354;2023-06-22T01:04:44;11.85;;;9.82;;
38113;SDS011;23926;53.222;6.354;2023-06-22T01:12:53;23.98;;;13.98;;
38113;SDS011;23926;53.222;6.354;2023-06-22T01:15:33;14.85;;;12.77;;
38113;SDS011;23926;53.222;6.354;2023-06-22T01:18:04;16.98;;;13.40;;
38113;SDS011;23926;53.222;6.354;2023-06-22T01:20:33;16.83;;;13.52;;
38113;SDS011;23926;53.222;6.354;2023-06-22T01:25:46;23.30;;;15.00;;
38113;SDS011;23926;53.222;6.354;2023-06-22T01:28:35;18.02;;;13.57;;
38113;SDS011;23926;53.222;6.354;2023-06-22T01:31:31;15.00;;;9.80;;
38113;SDS011;23926;53.222;6.354;2023-06-22T01:34:00;11.60;;;9.63;;
38113;SDS011;23926;53.222;6.354;2023-06-22T01:36:28;16.40;;;11.68;;
38113;SDS011;23926;53.222;6.354;2023-06-22T01:38:55;15.23;;;12.18;;
38113;SDS011;23926;53.222;6.354;2023-06-22T01:41:24;15.23;;;10.63;;
38113;SDS011;23926;53.222;6.354;2023-06-22T01:43:51;7.40;;;5.80;;
38113;SDS011;23926;53.222;6.354;2023-06-22T01:46:17;5.78;;;5.20;;
38113;SDS011;23926;53.222;6.354;2023-06-22T01:48:44;8.05;;;6.68;;
38113;SDS011;23926;53.222;6.354;2023-06-22T01:51:11;8.25;;;7.18;;
38113;SDS011;23926;53.222;6.354;2023-06-22T01:53:37;5.90;;;5.25;;
38113;SDS011;23926;53.222;6.354;2023-06-22T01:56:02;8.27;;;5.43;;
38113;SDS011;23926;53.222;6.354;2023-06-22T01:58:29;6.10;;;5.50;;
38113;SDS011;23926;53.222;6.354;2023-06-22T02:01:09;5.30;;;4.80;;
38113;SDS011;23926;53.222;6.354;2023-06-22T02:03:43;5.10;;;4.60;;
38113;SDS011;23926;53.222;6.354;2023-06-22T02:06:17;8.52;;;6.25;;
38113;SDS011;23926;53.222;6.354;2023-06-22T02:08:49;5.88;;;4.60;;
38113;SDS011;23926;53.222;6.354;2023-06-22T02:11:19;12.65;;;6.90;;
38113;SDS011;23926;53.222;6.354;2023-06-22T02:13:46;14.55;;;6.60;;
38113;SDS011;23926;53.222;6.354;2023-06-22T02:16:13;5.88;;;5.28;;
38113;SDS011;23926;53.222;6.354;2023-06-22T02:18:50;7.90;;;6.95;;
38113;SDS011;23926;53.222;6.354;2023-06-22T02:21:16;7.68;;;6.40;;
38113;SDS011;23926;53.222;6.354;2023-06-22T02:23:42;11.05;;;7.53;;
38113;SDS011;23926;53.222;6.354;2023-06-22T02:26:08;7.88;;;6.65;;
38113;SDS011;23926;53.222;6.354;2023-06-22T02:28:33;7.78;;;6.88;;
38113;SDS011;23926;53.222;6.354;2023-06-22T02:30:59;5.97;;;5.32;;
38113;SDS011;23926;53.222;6.354;2023-06-22T02:33:24;8.90;;;6.75;;
38113;SDS011;23926;53.222;6.354;2023-06-22T02:35:50;10.23;;;8.18;;
38113;SDS011;23926;53.222;6.354;2023-06-22T02:38:15;8.85;;;7.95;;
38113;SDS011;23926;53.222;6.354;2023-06-22T02:40:42;9.15;;;8.07;;
38113;SDS011;23926;53.222;6.354;2023-06-22T02:43:08;8.82;;;7.97;;
38113;SDS011;23926;53.222;6.354;2023-06-22T02:45:33;8.40;;;7.60;;
38113;SDS011;23926;53.222;6.354;2023-06-22T02:47:59;9.63;;;8.65;;
38113;SDS011;23926;53.222;6.354;2023-06-22T02:50:24;9.60;;;8.60;;
38113;SDS011;23926;53.222;6.354;2023-06-22T02:52:50;9.45;;;8.55;;
38113;SDS011;23926;53.222;6.354;2023-06-22T02:55:15;10.07;;;8.30;;
38113;SDS011;23926;53.222;6.354;2023-06-22T02:57:41;10.63;;;8.90;;
38113;SDS011;23926;53.222;6.354;2023-06-22T03:00:09;11.05;;;9.07;;
38113;SDS011;23926;53.222;6.354;2023-06-22T03:02:45;11.23;;;9.80;;
38113;SDS011;23926;53.222;6.354;2023-06-22T03:05:12;9.07;;;8.07;;
38113;SDS011;23926;53.222;6.354;2023-06-22T03:07:42;10.73;;;9.32;;
38113;SDS011;23926;53.222;6.354;2023-06-22T03:10:08;11.45;;;8.32;;
38113;SDS011;23926;53.222;6.354;2023-06-22T03:12:35;9.07;;;8.15;;
38113;SDS011;23926;53.222;6.354;2023-06-22T03:15:01;9.52;;;6.78;;
38113;SDS011;23926;53.222;6.354;2023-06-22T03:17:26;29.88;;;8.15;;
38113;SDS011;23926;53.222;6.354;2023-06-22T03:19:51;8.48;;;7.57;;
38113;SDS011;23926;53.222;6.354;2023-06-22T03:22:17;9.45;;;8.55;;
38113;SDS011;23926;53.222;6.354;2023-06-22T03:24:42;9.25;;;8.15;;
38113;SDS011;23926;53.222;6.354;2023-06-22T03:27:07;11.07;;;9.63;;
38113;SDS011;23926;53.222;6.354;2023-06-22T03:29:33;13.02;;;11.50;;
38113;SDS011;23926;53.222;6.354;2023-06-22T03:31:59;11.38;;;10.02;;
38113;SDS011;23926;53.222;6.354;2023-06-22T03:34:24;10.90;;;9.73;;
38113;SDS011;23926;53.222;6.354;2023-06-22T03:36:50;12.73;;;8.43;;
38113;SDS011;23926;53.222;6.354;2023-06-22T03:39:16;9.15;;;8.25;;
38113;SDS011;23926;53.222;6.354;2023-06-22T03:41:41;8.40;;;6.65;;
38113;SDS011;23926;53.222;6.354;2023-06-22T03:44:07;11.55;;;9.57;;
38113;SDS011;23926;53.222;6.354;2023-06-22T03:46:35;9.98;;;9.00;;
38113;SDS011;23926;53.222;6.354;2023-06-22T03:49:01;7.70;;;6.95;;
38113;SDS011;23926;53.222;6.354;2023-06-22T03:51:28;9.77;;;7.68;;
38113;SDS011;23926;53.222;6.354;2023-06-22T03:53:53;10.77;;;9.70;;
38113;SDS011;23926;53.222;6.354;2023-06-22T03:56:19;10.13;;;9.13;;
38113;SDS011;23926;53.222;6.354;2023-06-22T03:58:45;10.73;;;8.45;;
38113;SDS011;23926;53.222;6.354;2023-06-22T04:01:11;8.52;;;7.47;;
38113;SDS011;23926;53.222;6.354;2023-06-22T04:03:37;7.05;;;6.43;;
38113;SDS011;23926;53.222;6.354;2023-06-22T04:06:03;7.70;;;7.00;;
38113;SDS011;23926;53.222;6.354;2023-06-22T04:08:29;8.05;;;7.35;;
38113;SDS011;23926;53.222;6.354;2023-06-22T04:10:55;9.68;;;8.60;;
38113;SDS011;23926;53.222;6.354;2023-06-22T04:13:20;9.27;;;8.38;;
38113;SDS011;23926;53.222;6.354;2023-06-22T04:15:46;7.75;;;6.95;;
38113;SDS011;23926;53.222;6.354;2023-06-22T04:18:12;9.48;;;7.55;;
38113;SDS011;23926;53.222;6.354;2023-06-22T04:20:38;10.63;;;9.00;;
38113;SDS011;23926;53.222;6.354;2023-06-22T04:23:04;10.95;;;9.60;;
38113;SDS011;23926;53.222;6.354;2023-06-22T04:25:29;8.25;;;7.43;;
38113;SDS011;23926;53.222;6.354;2023-06-22T04:27:55;11.65;;;8.18;;
38113;SDS011;23926;53.222;6.354;2023-06-22T04:30:20;18.55;;;11.35;;
38113;SDS011;23926;53.222;6.354;2023-06-22T04:32:45;12.73;;;10.77;;
38113;SDS011;23926;53.222;6.354;2023-06-22T04:35:20;17.33;;;11.35;;
38113;SDS011;23926;53.222;6.354;2023-06-22T04:37:47;9.50;;;8.52;;
38113;SDS011;23926;53.222;6.354;2023-06-22T04:40:14;14.98;;;12.00;;
38113;SDS011;23926;53.222;6.354;2023-06-22T04:42:40;17.90;;;12.32;;
38113;SDS011;23926;53.222;6.354;2023-06-22T04:45:07;13.88;;;11.32;;
38113;SDS011;23926;53.222;6.354;2023-06-22T04:47:34;16.40;;;11.68;;
38113;SDS011;23926;53.222;6.354;2023-06-22T04:50:04;15.48;;;13.15;;
38113;SDS011;23926;53.222;6.354;2023-06-22T04:52:30;18.67;;;15.00;;
38113;SDS011;23926;53.222;6.354;2023-06-22T04:54:56;21.30;;;16.45;;
38113;SDS011;23926;53.222;6.354;2023-06-22T04:57:22;25.25;;;18.85;;
38113;SDS011;23926;53.222;6.354;2023-06-22T04:59:55;21.52;;;15.57;;
38113;SDS011;23926;53.222;6.354;2023-06-22T05:02:21;28.83;;;19.05;;
38113;SDS011;23926;53.222;6.354;2023-06-22T05:04:47;24.65;;;17.67;;
38113;SDS011;23926;53.222;6.354;2023-06-22T05:07:16;25.13;;;20.35;;
38113;SDS011;23926;53.222;6.354;2023-06-22T05:09:41;21.80;;;17.98;;
38113;SDS011;23926;53.222;6.354;2023-06-22T05:12:07;28.48;;;19.20;;
38113;SDS011;23926;53.222;6.354;2023-06-22T05:14:32;21.50;;;13.75;;
38113;SDS011;23926;53.222;6.354;2023-06-22T05:16:58;19.00;;;10.93;;
38113;SDS011;23926;53.222;6.354;2023-06-22T05:19:23;21.23;;;14.60;;
38113;SDS011;23926;53.222;6.354;2023-06-22T05:21:50;20.30;;;15.57;;
38113;SDS011;23926;53.222;6.354;2023-06-22T05:24:15;25.63;;;19.45;;
38113;SDS011;23926;53.222;6.354;2023-06-22T05:26:40;17.58;;;13.32;;
38113;SDS011;23926;53.222;6.354;2023-06-22T05:29:06;20.50;;;14.43;;
38113;SDS011;23926;53.222;6.354;2023-06-22T05:31:31;18.00;;;12.75;;
38113;SDS011;23926;53.222;6.354;2023-06-22T05:33:57;28.60;;;18.48;;
38113;SDS011;23926;53.222;6.354;2023-06-22T05:36:22;22.67;;;13.93;;
38113;SDS011;23926;53.222;6.354;2023-06-22T05:38:51;23.30;;;15.90;;
38113;SDS011;23926;53.222;6.354;2023-06-22T05:41:17;23.90;;;17.70;;
38113;SDS011;23926;53.222;6.354;2023-06-22T05:43:43;20.10;;;16.13;;
38113;SDS011;23926;53.222;6.354;2023-06-22T05:46:08;17.63;;;14.30;;
38113;SDS011;23926;53.222;6.354;2023-06-22T05:48:34;22.58;;;18.00;;
38113;SDS011;23926;53.222;6.354;2023-06-22T05:50:59;29.95;;;20.73;;
38113;SDS011;23926;53.222;6.354;2023-06-22T05:53:25;27.07;;;21.10;;
38113;SDS011;23926;53.222;6.354;2023-06-22T05:55:50;33.15;;;22.77;;
38113;SDS011;23926;53.222;6.354;2023-06-22T05:58:16;30.73;;;21.55;;
38113;SDS011;23926;53.222;6.354;2023-06-22T06:00:41;31.50;;;23.50;;
38113;SDS011;23926;53.222;6.354;2023-06-22T06:03:07;33.95;;;24.52;;
38113;SDS011;23926;53.222;6.354;2023-06-22T06:05:33;29.23;;;21.75;;
38113;SDS011;23926;53.222;6.354;2023-06-22T06:07:59;34.97;;;25.50;;
38113;SDS011;23926;53.222;6.354;2023-06-22T06:10:26;31.48;;;20.27;;
38113;SDS011;23926;53.222;6.354;2023-06-22T06:12:52;27.17;;;20.00;;
38113;SDS011;23926;53.222;6.354;2023-06-22T06:15:18;27.90;;;22.10;;
38113;SDS011;23926;53.222;6.354;2023-06-22T06:17:50;29.42;;;22.50;;
38113;SDS011;23926;53.222;6.354;2023-06-22T06:20:21;31.25;;;23.55;;
38113;SDS011;23926;53.222;6.354;2023-06-22T06:22:48;24.95;;;21.35;;
38113;SDS011;23926;53.222;6.354;2023-06-22T06:25:14;25.35;;;16.98;;
38113;SDS011;23926;53.222;6.354;2023-06-22T06:27:43;25.85;;;19.88;;
38113;SDS011;23926;53.222;6.354;2023-06-22T06:30:12;30.13;;;22.63;;
38113;SDS011;23926;53.222;6.354;2023-06-22T06:32:39;30.48;;;21.95;;
38113;SDS011;23926;53.222;6.354;2023-06-22T06:35:06;33.73;;;22.30;;
38113;SDS011;23926;53.222;6.354;2023-06-22T06:37:35;30.55;;;21.10;;
38113;SDS011;23926;53.222;6.354;2023-06-22T06:40:01;34.20;;;22.35;;
38113;SDS011;23926;53.222;6.354;2023-06-22T06:42:28;21.23;;;15.00;;
38113;SDS011;23926;53.222;6.354;2023-06-22T06:44:53;27.70;;;19.60;;
38113;SDS011;23926;53.222;6.354;2023-06-22T06:47:20;32.33;;;20.90;;
38113;SDS011;23926;53.222;6.354;2023-06-22T06:49:45;25.98;;;20.05;;
38113;SDS011;23926;53.222;6.354;2023-06-22T06:52:11;25.38;;;19.00;;
38113;SDS011;23926;53.222;6.354;2023-06-22T06:54:36;28.15;;;21.15;;
38113;SDS011;23926;53.222;6.354;2023-06-22T06:57:01;26.10;;;18.23;;
38113;SDS011;23926;53.222;6.354;2023-06-22T06:59:28;31.27;;;21.75;;
38113;SDS011;23926;53.222;6.354;2023-06-22T07:01:55;23.17;;;18.35;;
38113;SDS011;23926;53.222;6.354;2023-06-22T07:04:21;28.65;;;21.42;;
38113;SDS011;23926;53.222;6.354;2023-06-22T07:06:46;24.17;;;16.38;;
38113;SDS011;23926;53.222;6.354;2023-06-22T07:09:12;24.45;;;19.58;;
38113;SDS011;23926;53.222;6.354;2023-06-22T07:11:37;18.90;;;14.63;;
38113;SDS011;23926;53.222;6.354;2023-06-22T07:14:02;17.80;;;13.80;;
38113;SDS011;23926;53.222;6.354;2023-06-22T07:16:28;26.77;;;20.35;;
38113;SDS011;23926;53.222;6.354;2023-06-22T07:18:55;30.45;;;23.48;;
38113;SDS011;23926;53.222;6.354;2023-06-22T07:21:20;27.73;;;19.95;;
38113;SDS011;23926;53.222;6.354;2023-06-22T07:23:46;27.00;;;18.20;;
38113;SDS011;23926;53.222;6.354;2023-06-22T07:26:11;17.30;;;13.07;;
38113;SDS011;23926;53.222;6.354;2023-06-22T07:28:38;20.23;;;15.45;;
38113;SDS011;23926;53.222;6.354;2023-06-22T07:31:05;26.15;;;16.92;;
38113;SDS011;23926;53.222;6.354;2023-06-22T07:33:31;16.60;;;12.45;;
38113;SDS011;23926;53.222;6.354;2023-06-22T07:35:56;21.38;;;15.02;;
38113;SDS011;23926;53.222;6.354;2023-06-22T07:38:22;16.55;;;12.05;;
38113;SDS011;23926;53.222;6.354;2023-06-22T07:40:47;25.65;;;13.65;;
38113;SDS011;23926;53.222;6.354;2023-06-22T07:43:13;16.95;;;13.40;;
38113;SDS011;23926;53.222;6.354;2023-06-22T07:45:38;18.03;;;12.60;;
38113;SDS011;23926;53.222;6.354;2023-06-22T07:48:05;21.52;;;12.95;;
38113;SDS011;23926;53.222;6.354;2023-06-22T07:50:31;13.88;;;10.77;;
38113;SDS011;23926;53.222;6.354;2023-06-22T07:52:57;13.10;;;10.85;;
38113;SDS011;23926;53.222;6.354;2023-06-22T07:55:22;13.27;;;9.68;;
38113;SDS011;23926;53.222;6.354;2023-06-22T07:57:48;13.35;;;9.90;;
38113;SDS011;23926;53.222;6.354;2023-06-22T08:00:16;14.02;;;10.38;;
38113;SDS011;23926;53.222;6.354;2023-06-22T08:02:43;15.32;;;9.88;;
38113;SDS011;23926;53.222;6.354;2023-06-22T08:05:10;12.75;;;9.50;;
38113;SDS011;23926;53.222;6.354;2023-06-22T08:07:37;10.60;;;9.02;;
38113;SDS011;23926;53.222;6.354;2023-06-22T08:10:06;16.95;;;9.75;;
38113;SDS011;23926;53.222;6.354;2023-06-22T08:12:35;15.83;;;10.53;;
38113;SDS011;23926;53.222;6.354;2023-06-22T08:15:00;12.60;;;9.70;;
38113;SDS011;23926;53.222;6.354;2023-06-22T08:17:26;14.32;;;10.48;;
38113;SDS011;23926;53.222;6.354;2023-06-22T08:19:51;13.80;;;11.20;;
38113;SDS011;23926;53.222;6.354;2023-06-22T08:22:17;10.15;;;9.07;;
38113;SDS011;23926;53.222;6.354;2023-06-22T08:24:43;15.45;;;8.55;;
38113;SDS011;23926;53.222;6.354;2023-06-22T08:27:09;15.75;;;9.90;;
38113;SDS011;23926;53.222;6.354;2023-06-22T08:29:38;12.40;;;8.80;;
38113;SDS011;23926;53.222;6.354;2023-06-22T08:32:04;10.30;;;7.20;;
38113;SDS011;23926;53.222;6.354;2023-06-22T08:34:30;12.53;;;8.17;;
38113;SDS011;23926;53.222;6.354;2023-06-22T08:36:55;8.88;;;7.80;;
38113;SDS011;23926;53.222;6.354;2023-06-22T08:39:21;10.55;;;7.75;;
38113;SDS011;23926;53.222;6.354;2023-06-22T08:41:47;12.75;;;8.85;;
38113;SDS011;23926;53.222;6.354;2023-06-22T08:44:13;13.20;;;7.70;;
38113;SDS011;23926;53.222;6.354;2023-06-22T08:46:38;7.20;;;6.15;;
38113;SDS011;23926;53.222;6.354;2023-06-22T08:49:05;10.75;;;6.00;;
38113;SDS011;23926;53.222;6.354;2023-06-22T08:51:31;8.40;;;6.20;;
38113;SDS011;23926;53.222;6.354;2023-06-22T08:53:57;8.10;;;6.30;;
38113;SDS011;23926;53.222;6.354;2023-06-22T08:56:22;10.10;;;6.70;;
38113;SDS011;23926;53.222;6.354;2023-06-22T08:58:48;8.10;;;6.40;;
38113;SDS011;23926;53.222;6.354;2023-06-22T09:01:13;7.85;;;6.10;;
38113;SDS011;23926;53.222;6.354;2023-06-22T09:03:40;9.35;;;6.45;;
38113;SDS011;23926;53.222;6.354;2023-06-22T09:06:06;6.65;;;5.20;;
38113;SDS011;23926;53.222;6.354;2023-06-22T09:08:34;7.35;;;6.25;;
38113;SDS011;23926;53.222;6.354;2023-06-22T09:11:00;7.10;;;5.90;;
38113;SDS011;23926;53.222;6.354;2023-06-22T09:13:25;5.77;;;5.03;;
38113;SDS011;23926;53.222;6.354;2023-06-22T09:15:51;6.10;;;4.75;;
38113;SDS011;23926;53.222;6.354;2023-06-22T09:18:17;5.77;;;4.63;;
38113;SDS011;23926;53.222;6.354;2023-06-22T09:20:42;5.25;;;4.47;;
38113;SDS011;23926;53.222;6.354;2023-06-22T09:23:08;5.20;;;4.20;;
38113;SDS011;23926;53.222;6.354;2023-06-22T09:25:33;8.50;;;4.22;;
38113;SDS011;23926;53.222;6.354;2023-06-22T09:27:59;7.13;;;5.20;;
38113;SDS011;23926;53.222;6.354;2023-06-22T09:30:24;5.07;;;4.45;;
38113;SDS011;23926;53.222;6.354;2023-06-22T09:32:49;14.40;;;4.50;;
38113;SDS011;23926;53.222;6.354;2023-06-22T09:35:15;6.00;;;4.70;;
38113;SDS011;23926;53.222;6.354;2023-06-22T09:37:41;6.65;;;4.30;;
38113;SDS011;23926;53.222;6.354;2023-06-22T09:40:07;6.20;;;4.70;;
38113;SDS011;23926;53.222;6.354;2023-06-22T09:42:35;4.40;;;4.00;;
38113;SDS011;23926;53.222;6.354;2023-06-22T09:45:00;6.70;;;5.10;;
38113;SDS011;23926;53.222;6.354;2023-06-22T09:47:26;6.90;;;4.80;;
38113;SDS011;23926;53.222;6.354;2023-06-22T09:49:52;13.33;;;4.47;;
38113;SDS011;23926;53.222;6.354;2023-06-22T09:52:20;6.63;;;4.67;;
38113;SDS011;23926;53.222;6.354;2023-06-22T09:54:46;6.23;;;4.97;;
38113;SDS011;23926;53.222;6.354;2023-06-22T09:57:11;6.85;;;4.10;;
38113;SDS011;23926;53.222;6.354;2023-06-22T09:59:37;6.35;;;4.78;;
38113;SDS011;23926;53.222;6.354;2023-06-22T10:02:05;6.82;;;5.10;;
38113;SDS011;23926;53.222;6.354;2023-06-22T10:04:31;5.25;;;4.53;;
38113;SDS011;23926;53.222;6.354;2023-06-22T10:06:56;6.70;;;5.10;;
38113;SDS011;23926;53.222;6.354;2023-06-22T10:09:22;7.80;;;5.47;;
38113;SDS011;23926;53.222;6.354;2023-06-22T10:11:47;4.95;;;4.15;;
38113;SDS011;23926;53.222;6.354;2023-06-22T10:14:13;8.05;;;5.10;;
38113;SDS011;23926;53.222;6.354;2023-06-22T10:16:39;11.87;;;6.63;;
38113;SDS011;23926;53.222;6.354;2023-06-22T10:19:06;9.20;;;6.15;;
38113;SDS011;23926;53.222;6.354;2023-06-22T10:21:31;9.53;;;5.13;;
38113;SDS011;23926;53.222;6.354;2023-06-22T10:23:57;6.95;;;4.57;;
38113;SDS011;23926;53.222;6.354;2023-06-22T10:26:24;7.25;;;5.40;;
38113;SDS011;23926;53.222;6.354;2023-06-22T10:28:50;7.60;;;5.32;;
38113;SDS011;23926;53.222;6.354;2023-06-22T10:31:15;8.60;;;6.30;;
38113;SDS011;23926;53.222;6.354;2023-06-22T10:33:41;9.40;;;6.20;;
38113;SDS011;23926;53.222;6.354;2023-06-22T10:36:09;8.80;;;6.40;;
38113;SDS011;23926;53.222;6.354;2023-06-22T10:38:35;7.60;;;5.57;;
38113;SDS011;23926;53.222;6.354;2023-06-22T10:41:00;7.75;;;5.90;;
38113;SDS011;23926;53.222;6.354;2023-06-22T10:43:26;8.40;;;5.00;;
38113;SDS011;23926;53.222;6.354;2023-06-22T10:45:51;8.18;;;6.68;;
38113;SDS011;23926;53.222;6.354;2023-06-22T10:48:17;9.05;;;7.45;;
38113;SDS011;23926;53.222;6.354;2023-06-22T10:50:42;8.90;;;6.80;;
38113;SDS011;23926;53.222;6.354;2023-06-22T10:53:08;11.87;;;6.43;;
38113;SDS011;23926;53.222;6.354;2023-06-22T10:55:33;6.95;;;5.35;;
38113;SDS011;23926;53.222;6.354;2023-06-22T10:57:58;7.90;;;5.75;;
38113;SDS011;23926;53.222;6.354;2023-06-22T11:00:24;6.30;;;5.57;;
38113;SDS011;23926;53.222;6.354;2023-06-22T11:02:49;8.63;;;5.18;;
38113;SDS011;23926;53.222;6.354;2023-06-22T11:05:15;8.82;;;6.13;;
38113;SDS011;23926;53.222;6.354;2023-06-22T11:07:43;9.60;;;6.50;;
38113;SDS011;23926;53.222;6.354;2023-06-22T11:10:09;9.90;;;6.45;;
38113;SDS011;23926;53.222;6.354;2023-06-22T11:12:35;7.43;;;5.80;;
38113;SDS011;23926;53.222;6.354;2023-06-22T11:15:01;6.37;;;4.37;;
38113;SDS011;23926;53.222;6.354;2023-06-22T11:17:26;6.55;;;5.30;;
38113;SDS011;23926;53.222;6.354;2023-06-22T11:19:52;7.15;;;5.45;;
38113;SDS011;23926;53.222;6.354;2023-06-22T11:22:17;7.37;;;5.23;;
38113;SDS011;23926;53.222;6.354;2023-06-22T11:24:43;6.20;;;5.60;;
38113;SDS011;23926;53.222;6.354;2023-06-22T11:27:08;8.57;;;6.33;;
38113;SDS011;23926;53.222;6.354;2023-06-22T11:29:34;5.80;;;5.30;;
38113;SDS011;23926;53.222;6.354;2023-06-22T11:31:59;7.60;;;5.80;;
38113;SDS011;23926;53.222;6.354;2023-06-22T11:34:24;5.47;;;4.97;;
38113;SDS011;23926;53.222;6.354;2023-06-22T11:36:51;11.18;;;7.32;;
38113;SDS011;23926;53.222;6.354;2023-06-22T11:39:16;7.03;;;6.10;;
38113;SDS011;23926;53.222;6.354;2023-06-22T11:41:42;11.55;;;7.00;;
38113;SDS011;23926;53.222;6.354;2023-06-22T11:44:07;10.35;;;6.60;;
38113;SDS011;23926;53.222;6.354;2023-06-22T11:46:33;9.00;;;6.05;;
38113;SDS011;23926;53.222;6.354;2023-06-22T11:49:00;8.45;;;6.20;;
38113;SDS011;23926;53.222;6.354;2023-06-22T11:51:25;6.23;;;5.60;;
38113;SDS011;23926;53.222;6.354;2023-06-22T11:53:51;5.90;;;5.38;;
38113;SDS011;23926;53.222;6.354;2023-06-22T11:56:16;6.22;;;4.75;;
38113;SDS011;23926;53.222;6.354;2023-06-22T11:58:41;6.03;;;5.43;;
38113;SDS011;23926;53.222;6.354;2023-06-22T12:01:07;7.85;;;5.03;;
38113;SDS011;23926;53.222;6.354;2023-06-22T12:03:32;7.57;;;5.30;;
38113;SDS011;23926;53.222;6.354;2023-06-22T12:05:59;4.78;;;4.30;;
38113;SDS011;23926;53.222;6.354;2023-06-22T12:08:25;6.50;;;5.05;;
38113;SDS011;23926;53.222;6.354;2023-06-22T12:10:50;6.70;;;4.85;;
38113;SDS011;23926;53.222;6.354;2023-06-22T12:13:16;4.63;;;4.22;;
38113;SDS011;23926;53.222;6.354;2023-06-22T12:15:41;5.72;;;3.53;;
38113;SDS011;23926;53.222;6.354;2023-06-22T12:18:06;5.75;;;4.88;;
38113;SDS011;23926;53.222;6.354;2023-06-22T12:20:33;8.02;;;5.18;;
38113;SDS011;23926;53.222;6.354;2023-06-22T12:22:59;5.38;;;4.60;;
38113;SDS011;23926;53.222;6.354;2023-06-22T12:25:24;8.27;;;4.97;;
38113;SDS011;23926;53.222;6.354;2023-06-22T12:27:49;4.63;;;4.15;;
38113;SDS011;23926;53.222;6.354;2023-06-22T12:30:15;5.88;;;4.72;;
38113;SDS011;23926;53.222;6.354;2023-06-22T12:32:41;5.85;;;4.72;;
38113;SDS011;23926;53.222;6.354;2023-06-22T12:35:07;18.50;;;5.20;;
38113;SDS011;23926;53.222;6.354;2023-06-22T12:37:38;6.25;;;3.55;;
38113;SDS011;23926;53.222;6.354;2023-06-22T12:40:04;10.23;;;3.85;;
38113;SDS011;23926;53.222;6.354;2023-06-22T12:42:30;4.78;;;3.92;;
38113;SDS011;23926;53.222;6.354;2023-06-22T12:44:55;5.90;;;4.40;;
38113;SDS011;23926;53.222;6.354;2023-06-22T12:47:20;4.38;;;3.88;;
38113;SDS011;23926;53.222;6.354;2023-06-22T12:49:46;4.45;;;3.83;;
38113;SDS011;23926;53.222;6.354;2023-06-22T12:52:11;3.88;;;3.42;;
38113;SDS011;23926;53.222;6.354;2023-06-22T12:54:37;3.13;;;2.83;;
38113;SDS011;23926;53.222;6.354;2023-06-22T12:57:02;8.00;;;3.20;;
38113;SDS011;23926;53.222;6.354;2023-06-22T12:59:28;6.17;;;3.83;;
38113;SDS011;23926;53.222;6.354;2023-06-22T13:01:53;4.60;;;3.55;;
38113;SDS011;23926;53.222;6.354;2023-06-22T13:04:19;3.83;;;3.15;;
38113;SDS011;23926;53.222;6.354;2023-06-22T13:06:44;4.70;;;2.55;;
38113;SDS011;23926;53.222;6.354;2023-06-22T13:09:17;6.03;;;3.08;;
38113;SDS011;23926;53.222;6.354;2023-06-22T13:11:43;4.68;;;3.33;;
38113;SDS011;23926;53.222;6.354;2023-06-22T13:14:09;2.80;;;2.53;;
38113;SDS011;23926;53.222;6.354;2023-06-22T13:16:34;3.05;;;2.75;;
38113;SDS011;23926;53.222;6.354;2023-06-22T13:19:00;3.58;;;2.92;;
38113;SDS011;23926;53.222;6.354;2023-06-22T13:21:25;3.85;;;2.90;;
38113;SDS011;23926;53.222;6.354;2023-06-22T13:23:51;4.60;;;2.95;;
38113;SDS011;23926;53.222;6.354;2023-06-22T13:26:16;4.60;;;3.00;;
38113;SDS011;23926;53.222;6.354;2023-06-22T13:28:42;3.67;;;3.38;;
38113;SDS011;23926;53.222;6.354;2023-06-22T13:31:07;3.70;;;2.85;;
38113;SDS011;23926;53.222;6.354;2023-06-22T13:33:32;3.55;;;2.53;;
38113;SDS011;23926;53.222;6.354;2023-06-22T13:35:58;2.30;;;1.80;;
38113;SDS011;23926;53.222;6.354;2023-06-22T13:38:23;1.70;;;1.60;;
38113;SDS011;23926;53.222;6.354;2023-06-22T13:40:49;3.28;;;2.38;;
38113;SDS011;23926;53.222;6.354;2023-06-22T13:43:14;2.15;;;1.67;;
38113;SDS011;23926;53.222;6.354;2023-06-22T13:45:41;5.75;;;2.03;;
38113;SDS011;23926;53.222;6.354;2023-06-22T13:48:06;4.05;;;1.98;;
38113;SDS011;23926;53.222;6.354;2023-06-22T13:50:32;1.65;;;1.55;;
38113;SDS011;23926;53.222;6.354;2023-06-22T13:52:57;1.83;;;1.60;;
38113;SDS011;23926;53.222;6.354;2023-06-22T13:55:23;1.65;;;1.55;;
38113;SDS011;23926;53.222;6.354;2023-06-22T13:57:48;1.92;;;1.77;;
38113;SDS011;23926;53.222;6.354;2023-06-22T14:00:14;2.10;;;1.58;;
38113;SDS011;23926;53.222;6.354;2023-06-22T14:02:40;1.65;;;1.55;;
38113;SDS011;23926;53.222;6.354;2023-06-22T14:05:06;4.70;;;1.80;;
38113;SDS011;23926;53.222;6.354;2023-06-22T14:07:32;2.03;;;1.85;;
38113;SDS011;23926;53.222;6.354;2023-06-22T14:09:58;1.67;;;1.58;;
38113;SDS011;23926;53.222;6.354;2023-06-22T14:12:23;2.20;;;1.42;;
38113;SDS011;23926;53.222;6.354;2023-06-22T14:14:49;1.98;;;1.58;;
38113;SDS011;23926;53.222;6.354;2023-06-22T14:17:15;2.85;;;1.52;;
38113;SDS011;23926;53.222;6.354;2023-06-22T14:19:40;2.28;;;1.60;;
38113;SDS011;23926;53.222;6.354;2023-06-22T14:22:05;2.88;;;2.03;;
38113;SDS011;23926;53.222;6.354;2023-06-22T14:24:31;2.20;;;1.90;;
38113;SDS011;23926;53.222;6.354;2023-06-22T14:26:56;1.17;;;1.08;;
38113;SDS011;23926;53.222;6.354;2023-06-22T14:29:22;1.98;;;1.52;;
38113;SDS011;23926;53.222;6.354;2023-06-22T14:31:48;1.42;;;1.35;;
38113;SDS011;23926;53.222;6.354;2023-06-22T14:34:14;2.55;;;2.03;;
38113;SDS011;23926;53.222;6.354;2023-06-22T14:36:40;2.30;;;1.57;;
38113;SDS011;23926;53.222;6.354;2023-06-22T14:39:06;1.60;;;1.50;;